CDT,Max TemperatureF,Mean TemperatureF,Min TemperatureF,Max Dew PointF,MeanDew PointF,Min DewpointF,Max Humidity, Mean Humidity, Min Humidity, Max Sea Level PressureIn, Mean Sea Level PressureIn, Min Sea Level PressureIn, Max VisibilityMiles, Mean VisibilityMiles, Min VisibilityMiles, Max Wind SpeedMPH, Mean Wind SpeedMPH, Max Gust SpeedMPH,PrecipitationIn, CloudCover, Events, WindDirDegrees
2012-9-1,93,86,78,75,74,73,91,74,56,30.11,30.03,29.96,10,10,10,21,13,32,T,4,Rain,199
2012-9-2,94,86,77,74,73,72,88,70,52,30.02,29.95,29.88,10,10,10,21,13,28,0.00,0,,214
2012-9-3,98,89,79,75,73,71,85,65,45,29.95,29.90,29.85,10,10,10,18,12,23,0.00,0,,244
2012-9-4,98,88,78,76,73,71,85,65,45,29.92,29.88,29.83,10,10,10,17,7,23,0.00,0,,278
2012-9-5,98,87,75,76,72,66,94,66,38,29.90,29.85,29.80,10,10,9,12,3,14,0.00,0,,231
2012-9-6,100,89,77,77,74,70,91,64,37,29.92,29.89,29.85,10,10,5,13,7,15,0.00,1,,167
2012-9-7,97,86,75,76,72,64,94,68,42,29.94,29.88,29.78,10,10,8,22,8,28,T,2,Rain-Thunderstorm,158
2012-9-8,80,71,61,72,65,55,100,71,42,30.04,29.94,29.86,10,9,3,21,9,25,0.54,5,Rain,349
2012-9-9,84,70,55,60,57,52,100,67,34,30.12,30.06,30.02,10,10,8,15,3,22,0.00,0,,343
2012-9-10,86,72,58,61,58,54,100,66,32,30.17,30.11,30.07,10,9,1,12,4,15,0.00,0,,354
2012-9-11,88,73,58,64,58,54,100,66,31,30.19,30.13,30.09,10,10,9,12,5,15,0.00,1,,124
2012-9-12,89,76,63,69,62,57,93,64,34,30.20,30.14,30.08,10,10,8,15,6,18,0.00,3,,124
2012-9-13,83,76,68,70,67,64,97,76,55,30.22,30.16,30.11,10,10,4,16,6,20,T,3,Rain,141
2012-9-14,87,78,68,70,67,64,93,71,48,30.21,30.17,30.12,10,10,9,10,4,20,0.00,4,,87
2012-9-15,88,77,65,68,64,57,93,65,36,30.19,30.14,30.08,10,10,7,13,5,16,0.00,2,,28
2012-9-16,87,79,70,72,68,62,93,68,43,30.07,30.01,29.96,10,8,1,15,3,18,0.21,7,Rain,359
2012-9-17,73,72,70,72,70,69,100,94,87,29.96,29.83,29.74,10,6,2,13,6,16,0.74,7,Rain,21
2012-9-18,76,65,54,68,62,50,97,71,44,30.08,29.93,29.77,10,9,3,24,9,29,0.12,5,Rain,344
2012-9-19,78,64,50,55,50,42,100,66,31,30.19,30.13,30.07,10,9,2,10,3,,0.00,0,,5
2012-9-20,82,66,50,59,52,48,100,67,33,30.14,30.08,30.02,10,10,9,8,2,13,0.00,0,,207
2012-9-21,84,70,56,61,56,52,93,64,34,30.09,30.02,29.96,10,10,10,14,5,18,0.00,0,,187
2012-9-22,91,76,60,63,59,49,93,59,24,30.13,30.06,29.97,10,10,7,12,4,14,0.00,0,,305
2012-9-23,82,70,58,58,51,46,93,62,30,30.25,30.19,30.13,10,10,10,14,7,18,0.00,0,,20
2012-9-24,84,70,55,61,51,44,72,53,33,30.25,30.17,30.08,10,10,9,14,7,18,0.00,1,,104
2012-9-25,91,79,67,70,66,62,84,66,47,30.10,30.05,30.01,10,10,8,17,10,23,0.00,0,,188
2012-9-26,88,77,66,69,65,60,97,69,40,30.13,30.08,30.02,10,9,6,14,8,33,0.00,2,,180
2012-9-27,90,76,61,68,62,58,100,67,34,30.17,30.10,30.04,10,10,10,8,3,,0.00,0,,198
2012-9-28,89,76,62,67,63,56,93,64,34,30.12,30.05,29.99,10,10,9,12,3,14,0.00,0,,332
2012-9-29,80,74,67,72,69,67,100,84,67,30.02,29.95,29.89,10,7,2,14,6,16,0.97,4,Rain,48
2012-9-30,67,63,59,66,61,56,100,94,87,29.91,29.75,29.61,10,4,1,33,18,49,3.48,8,Rain,43